METAR Data
IDs: Format: Raw Decoded Include TAF

Data at: 0859 UTC 23 Jan 2019

METAR for:KHCR (Heber City Muni, UT, US)
Text:KHCR 230855Z AUTO 00000KT 1SM BR BKN001 BKN010 M18/M21 A3038 RMK AO2 VIS 1/2V4
Temperature:-18.0°C ( -0°F)
Dewpoint:-21.0°C ( -6°F) [RH = 77%]
Pressure (altimeter):30.38 inches Hg (1028.9 mb)
Winds:calm
Visibility: 1.00 sm ( 1.61 km)
Ceiling:100 feet AGL
Clouds: broken clouds at 100 feet AGL, broken clouds at 1000 feet AGL
Weather:BR (mist)
QC Flag:automated observation with no human augmentation